WetterOnline ( https://www.wetteronline.de )

Wetter aktuell Wustrau

Aktuelles Wetter: Neuruppin - Alt Ruppin (50m)

6-stündlich | Neueste Meldungen
Ortszeit Temperatur Wetter
Mo, 02.08. 2:00 14.2° C bedeckt
So, 01.08. 20:00 16.2° C Regen
So, 01.08. 14:00 20.0° C wolkig
So, 01.08. 8:00 16.2° C bedeckt
So, 01.08. 2:00 15.7° C wolkenlos
Sa, 31.07. 20:00 19.8° C leicht bewölkt
Sa, 31.07. 14:00 20.5° C bedeckt
Sa, 31.07. 8:00 18.3° C wolkenlos
Ortszeit Temperatur Wetter
Mo, 02.08. 2:10 14.2° C bedeckt
Mo, 02.08. 2:00 14.2° C bedeckt
Mo, 02.08. 1:50 14.2° C bedeckt
Mo, 02.08. 1:40 14.1° C bedeckt
Mo, 02.08. 1:30 14.0° C Sprühregen
Mo, 02.08. 1:20 14.0° C Sprühregen
Mo, 02.08. 1:00 13.9° C leicht bewölkt
Mo, 02.08. 0:30 14.0° C wolkenlos
Mo, 02.08. 0:00 13.9° C wolkenlos
So, 01.08. 23:30 14.2° C wolkenlos
So, 01.08. 23:00 14.5° C fast wolkenlos
Ortszeit Relative Feuchte Sichtweite
Mo, 02.08. 2:00 96% 40 km
So, 01.08. 20:00 91% 8 km
So, 01.08. 14:00 64% 40 km
So, 01.08. 8:00 81% 45 km
So, 01.08. 2:00 81% 50 km
Sa, 31.07. 20:00 61% 55 km
Sa, 31.07. 14:00 52% 50 km
Sa, 31.07. 8:00 72% 45 km
Ortszeit Relative Feuchte Sichtweite
Mo, 02.08. 2:10 96% -
Mo, 02.08. 2:00 96% 40 km
Mo, 02.08. 1:50 96% -
Mo, 02.08. 1:40 97% -
Mo, 02.08. 1:30 98% 7 km
Mo, 02.08. 1:20 98% -
Mo, 02.08. 1:00 98% 19 km
Mo, 02.08. 0:30 98% 22 km
Mo, 02.08. 0:00 97% 27 km
So, 01.08. 23:30 97% 30 km
So, 01.08. 23:00 96% 30 km
Ortszeit Niederschlagsmenge Niederschlagsart
Mo, 02.08. 2:00 3 l/m2 in 6 Std. Regen
So, 01.08. 20:00 5 l/m2 in 12 Std. Regen
So, 01.08. 14:00 0.0 l/m2 in 6 Std. -
So, 01.08. 8:00 0.0 l/m2 in 12 Std. -
So, 01.08. 2:00 0.0 l/m2 in 6 Std. -
Sa, 31.07. 20:00 0.1 l/m2 in 12 Std. Regen
Sa, 31.07. 14:00 0.0 l/m2 in 6 Std. -
Sa, 31.07. 8:00 0.1 l/m2 in 12 Std. -
Ortszeit Niederschlagsmenge Niederschlagsart
Mo, 02.08. 2:10 keine Meldung -
Mo, 02.08. 2:00 0.8 l/m2 in 1 Std. Regen
Mo, 02.08. 1:50 keine Meldung -
Mo, 02.08. 1:40 keine Meldung -
Mo, 02.08. 1:30 0.7 l/m2 in 1 Std. -
Mo, 02.08. 1:20 keine Meldung -
Mo, 02.08. 1:00 0.0 l/m2 in 1 Std. -
Mo, 02.08. 0:30 0.0 l/m2 in 1 Std. -
Mo, 02.08. 0:00 0.1 l/m2 in 1 Std. -
So, 01.08. 23:30 0.0 l/m2 in 1 Std. -
So, 01.08. 23:00 0.0 l/m2 in 1 Std. Regen
Ortszeit Stärke Spitze Richtung
km/h Bft. km/h Grad Sektor
Mo, 02.08. 2:00 6 1 17 280° W
So, 01.08. 20:00 11 2 24 320° NW
So, 01.08. 14:00 7 2 25 250° W
So, 01.08. 8:00 9 2 22 260° W
So, 01.08. 2:00 9 2 28 240° SW
Sa, 31.07. 20:00 19 3 46 250° W
Sa, 31.07. 14:00 19 3 41 250° W
Sa, 31.07. 8:00 9 2 31 240° SW
Ortszeit Stärke Spitze Richtung
km/h Bft. km/h Grad Sektor
Mo, 02.08. 2:10 7 2 - 280° W
Mo, 02.08. 2:00 6 1 17 280° W
Mo, 02.08. 1:50 6 1 - 280° W
Mo, 02.08. 1:40 4 1 - 260° W
Mo, 02.08. 1:30 11 2 18 250° W
Mo, 02.08. 1:20 11 2 - 250° W
Mo, 02.08. 1:00 7 2 14 260° W
Mo, 02.08. 0:30 7 2 14 240° SW
Mo, 02.08. 0:00 7 2 14 240° SW
So, 01.08. 23:30 7 2 14 270° W
So, 01.08. 23:00 4 1 11 260° W
Ortszeit Untergrenze Bedeckung Gattung
total tief tief mittel hoch
Mo, 02.08. 2:00 600 m 8/8 8/8 - - -
So, 01.08. 20:00 510 m 8/8 7/8 - - -
So, 01.08. 14:00 1500 m 8/8 2/8 - - -
So, 01.08. 8:00 720 m 8/8 8/8 - - -
So, 01.08. 2:00 - 0/8 0/8 - - -
Sa, 31.07. 20:00 2400 m 2/8 2/8 - - -
Sa, 31.07. 14:00 1500 m 8/8 8/8 - - -
Sa, 31.07. 8:00 - 0/8 0/8 - - -
Ortszeit Bedeckungsgrad in Achtel und Wolkenuntergrenze
Mo, 02.08. 2:10 4(1200m) 7(2100m) 8(2700m)
Mo, 02.08. 2:00 1(600m) 7(1200m) 8(1500m)
Mo, 02.08. 1:50 1(600m) 7(1200m) 8(1500m)
Mo, 02.08. 1:40 1(600m) 8(1500m) 8(2400m)
Mo, 02.08. 1:30 2(570m) 5(1140m) 7(1440m)
Mo, 02.08. 1:20 2(570m) 5(1140m) 7(1440m)
Mo, 02.08. 1:00 3(2400m) 3(1140m) 5(2400m)
Mo, 02.08. 0:30 keine Wolken
Mo, 02.08. 0:00 keine Wolken
So, 01.08. 23:30 keine Wolken
So, 01.08. 23:00 1(3000m)
Ortszeit Luftdruck NN (hPa) Tendenz (hPa in 3 Std.)
Mo, 02.08. 2:00 1008 + 0,5
So, 01.08. 20:00 1008 + 1,1
So, 01.08. 14:00 1007 - 0,4
So, 01.08. 8:00 1008 + 0,3
So, 01.08. 2:00 1007 - 0,1
Sa, 31.07. 20:00 1006 + 0,4
Sa, 31.07. 14:00 1006 + 0,1
Sa, 31.07. 8:00 1006 + 0,8
Ortszeit Luftdruck NN (hPa) Tendenz (hPa in 3 Std.)
Mo, 02.08. 2:10 1008 keine Meldung
Mo, 02.08. 2:00 1008 + 0,5
Mo, 02.08. 1:50 1008 keine Meldung
Mo, 02.08. 1:40 1009 keine Meldung
Mo, 02.08. 1:30 1009 + 0,7
Mo, 02.08. 1:20 1009 keine Meldung
Mo, 02.08. 1:00 1008 + 0,6
Mo, 02.08. 0:30 1008 + 0,7
Mo, 02.08. 0:00 1008 + 0,3
So, 01.08. 23:30 1008 + 0,4
So, 01.08. 23:00 1008 + 0,3
Ortszeit Schneehöhe (cm)
Mo, 02.08. 2:00 -
So, 01.08. 20:00 -
So, 01.08. 14:00 -
So, 01.08. 8:00 -
So, 01.08. 2:00 -
Sa, 31.07. 20:00 -
Sa, 31.07. 14:00 -
Sa, 31.07. 8:00 -
Ortszeit Schneehöhe (cm)
Mo, 02.08. 2:10 -
Mo, 02.08. 2:00 -
Mo, 02.08. 1:50 -
Mo, 02.08. 1:40 -
Mo, 02.08. 1:30 -
Mo, 02.08. 1:20 -
Mo, 02.08. 1:00 -
Mo, 02.08. 0:30 -
Mo, 02.08. 0:00 -
So, 01.08. 23:30 -
So, 01.08. 23:00 -
Link zu dieser Seite / Seite empfehlen

Das Wetter in ...